sensor_id;sensor_type;location;lat;lon;timestamp;P1;durP1;ratioP1;P2;durP2;ratioP2
55732;SDS011;41637;52.364;9.910;2022-08-01T00:00:03;6.60;;;4.60;;
55732;SDS011;41637;52.364;9.910;2022-08-01T00:02:35;5.20;;;4.40;;
55732;SDS011;41637;52.364;9.910;2022-08-01T00:05:06;6.30;;;4.50;;
55732;SDS011;41637;52.364;9.910;2022-08-01T00:07:34;6.10;;;4.20;;
55732;SDS011;41637;52.364;9.910;2022-08-01T00:10:02;7.00;;;4.40;;
55732;SDS011;41637;52.364;9.910;2022-08-01T00:12:30;5.70;;;4.30;;
55732;SDS011;41637;52.364;9.910;2022-08-01T00:14:57;5.80;;;4.40;;
55732;SDS011;41637;52.364;9.910;2022-08-01T00:17:24;7.30;;;4.60;;
55732;SDS011;41637;52.364;9.910;2022-08-01T00:19:51;6.40;;;5.10;;
55732;SDS011;41637;52.364;9.910;2022-08-01T00:22:18;6.40;;;4.80;;
55732;SDS011;41637;52.364;9.910;2022-08-01T00:24:45;7.20;;;5.10;;
55732;SDS011;41637;52.364;9.910;2022-08-01T00:27:12;7.60;;;5.20;;
55732;SDS011;41637;52.364;9.910;2022-08-01T00:29:39;7.80;;;5.60;;
55732;SDS011;41637;52.364;9.910;2022-08-01T00:32:26;6.10;;;5.30;;
55732;SDS011;41637;52.364;9.910;2022-08-01T00:34:53;6.90;;;5.60;;
55732;SDS011;41637;52.364;9.910;2022-08-01T00:37:21;6.70;;;5.60;;
55732;SDS011;41637;52.364;9.910;2022-08-01T00:39:49;7.70;;;5.70;;
55732;SDS011;41637;52.364;9.910;2022-08-01T00:42:15;10.30;;;5.80;;
55732;SDS011;41637;52.364;9.910;2022-08-01T00:44:43;8.50;;;5.70;;
55732;SDS011;41637;52.364;9.910;2022-08-01T00:47:11;8.00;;;6.00;;
55732;SDS011;41637;52.364;9.910;2022-08-01T00:49:38;9.30;;;6.10;;
55732;SDS011;41637;52.364;9.910;2022-08-01T00:52:05;8.70;;;5.80;;
55732;SDS011;41637;52.364;9.910;2022-08-01T00:54:34;9.40;;;6.30;;
55732;SDS011;41637;52.364;9.910;2022-08-01T00:57:02;8.90;;;6.50;;
55732;SDS011;41637;52.364;9.910;2022-08-01T00:59:29;8.00;;;6.20;;
55732;SDS011;41637;52.364;9.910;2022-08-01T01:01:57;10.20;;;6.30;;
55732;SDS011;41637;52.364;9.910;2022-08-01T01:04:24;11.30;;;6.30;;
55732;SDS011;41637;52.364;9.910;2022-08-01T01:12:31;7.60;;;5.40;;
55732;SDS011;41637;52.364;9.910;2022-08-01T01:15:23;7.40;;;5.80;;
55732;SDS011;41637;52.364;9.910;2022-08-01T01:20:40;7.50;;;5.60;;
55732;SDS011;41637;52.364;9.910;2022-08-01T01:26:31;7.90;;;4.90;;
55732;SDS011;41637;52.364;9.910;2022-08-01T01:29:17;6.10;;;5.20;;
55732;SDS011;41637;52.364;9.910;2022-08-01T01:31:49;8.20;;;4.80;;
55732;SDS011;41637;52.364;9.910;2022-08-01T01:34:21;9.50;;;5.60;;
55732;SDS011;41637;52.364;9.910;2022-08-01T01:36:50;6.90;;;4.90;;
55732;SDS011;41637;52.364;9.910;2022-08-01T01:39:20;7.10;;;5.30;;
55732;SDS011;41637;52.364;9.910;2022-08-01T01:41:49;7.20;;;4.80;;
55732;SDS011;41637;52.364;9.910;2022-08-01T01:44:19;6.30;;;4.90;;
55732;SDS011;41637;52.364;9.910;2022-08-01T01:46:47;8.60;;;5.10;;
55732;SDS011;41637;52.364;9.910;2022-08-01T01:49:16;6.00;;;4.60;;
55732;SDS011;41637;52.364;9.910;2022-08-01T01:51:49;5.90;;;4.30;;
55732;SDS011;41637;52.364;9.910;2022-08-01T01:54:35;7.70;;;4.40;;
55732;SDS011;41637;52.364;9.910;2022-08-01T01:57:05;6.10;;;3.70;;
55732;SDS011;41637;52.364;9.910;2022-08-01T01:59:35;5.10;;;3.50;;
55732;SDS011;41637;52.364;9.910;2022-08-01T02:02:04;7.10;;;3.70;;
55732;SDS011;41637;52.364;9.910;2022-08-01T02:04:34;5.30;;;3.20;;
55732;SDS011;41637;52.364;9.910;2022-08-01T02:07:03;3.90;;;2.50;;
55732;SDS011;41637;52.364;9.910;2022-08-01T02:09:35;4.50;;;2.50;;
55732;SDS011;41637;52.364;9.910;2022-08-01T02:12:03;3.40;;;2.70;;
55732;SDS011;41637;52.364;9.910;2022-08-01T02:14:34;5.00;;;2.90;;
55732;SDS011;41637;52.364;9.910;2022-08-01T02:17:01;3.90;;;2.90;;
55732;SDS011;41637;52.364;9.910;2022-08-01T02:19:30;4.60;;;3.10;;
55732;SDS011;41637;52.364;9.910;2022-08-01T02:22:10;4.20;;;3.70;;
55732;SDS011;41637;52.364;9.910;2022-08-01T02:24:46;4.30;;;3.50;;
55732;SDS011;41637;52.364;9.910;2022-08-01T02:27:21;4.20;;;3.80;;
55732;SDS011;41637;52.364;9.910;2022-08-01T02:29:53;5.00;;;3.40;;
55732;SDS011;41637;52.364;9.910;2022-08-01T02:32:23;4.80;;;3.20;;
55732;SDS011;41637;52.364;9.910;2022-08-01T02:35:00;3.10;;;2.20;;
55732;SDS011;41637;52.364;9.910;2022-08-01T02:37:31;2.90;;;2.20;;
55732;SDS011;41637;52.364;9.910;2022-08-01T02:40:07;3.30;;;2.00;;
55732;SDS011;41637;52.364;9.910;2022-08-01T02:42:40;3.60;;;2.00;;
55732;SDS011;41637;52.364;9.910;2022-08-01T02:45:10;3.10;;;1.90;;
55732;SDS011;41637;52.364;9.910;2022-08-01T02:47:38;4.20;;;1.80;;
55732;SDS011;41637;52.364;9.910;2022-08-01T02:50:09;2.90;;;1.80;;
55732;SDS011;41637;52.364;9.910;2022-08-01T02:52:38;3.10;;;1.70;;
55732;SDS011;41637;52.364;9.910;2022-08-01T02:55:08;3.70;;;2.30;;
55732;SDS011;41637;52.364;9.910;2022-08-01T02:57:36;5.40;;;2.60;;
55732;SDS011;41637;52.364;9.910;2022-08-01T03:00:18;4.10;;;2.60;;
55732;SDS011;41637;52.364;9.910;2022-08-01T03:02:48;4.20;;;2.80;;
55732;SDS011;41637;52.364;9.910;2022-08-01T03:05:20;3.60;;;2.80;;
55732;SDS011;41637;52.364;9.910;2022-08-01T03:07:49;3.80;;;2.90;;
55732;SDS011;41637;52.364;9.910;2022-08-01T03:10:18;4.40;;;3.60;;
55732;SDS011;41637;52.364;9.910;2022-08-01T03:12:45;4.90;;;3.40;;
55732;SDS011;41637;52.364;9.910;2022-08-01T03:15:15;4.50;;;3.90;;
55732;SDS011;41637;52.364;9.910;2022-08-01T03:17:43;5.40;;;4.10;;
55732;SDS011;41637;52.364;9.910;2022-08-01T03:20:15;5.60;;;4.50;;
55732;SDS011;41637;52.364;9.910;2022-08-01T03:22:43;4.80;;;4.10;;
55732;SDS011;41637;52.364;9.910;2022-08-01T03:25:12;7.10;;;5.00;;
55732;SDS011;41637;52.364;9.910;2022-08-01T03:27:45;8.30;;;5.50;;
55732;SDS011;41637;52.364;9.910;2022-08-01T03:30:16;7.10;;;5.30;;
55732;SDS011;41637;52.364;9.910;2022-08-01T03:32:44;7.20;;;5.40;;
55732;SDS011;41637;52.364;9.910;2022-08-01T03:35:10;8.80;;;5.90;;
55732;SDS011;41637;52.364;9.910;2022-08-01T03:37:38;6.70;;;5.70;;
55732;SDS011;41637;52.364;9.910;2022-08-01T03:40:31;8.50;;;6.40;;
55732;SDS011;41637;52.364;9.910;2022-08-01T03:43:05;8.20;;;6.20;;
55732;SDS011;41637;52.364;9.910;2022-08-01T03:45:37;8.40;;;6.10;;
55732;SDS011;41637;52.364;9.910;2022-08-01T03:48:13;6.40;;;4.90;;
55732;SDS011;41637;52.364;9.910;2022-08-01T03:50:43;5.70;;;4.40;;
55732;SDS011;41637;52.364;9.910;2022-08-01T03:53:13;4.70;;;3.80;;
55732;SDS011;41637;52.364;9.910;2022-08-01T03:55:42;5.00;;;3.80;;
55732;SDS011;41637;52.364;9.910;2022-08-01T03:58:10;5.20;;;3.30;;
55732;SDS011;41637;52.364;9.910;2022-08-01T04:00:38;5.00;;;2.30;;
55732;SDS011;41637;52.364;9.910;2022-08-01T04:03:09;4.20;;;2.50;;
55732;SDS011;41637;52.364;9.910;2022-08-01T04:05:42;2.70;;;1.80;;
55732;SDS011;41637;52.364;9.910;2022-08-01T04:08:10;4.10;;;2.00;;
55732;SDS011;41637;52.364;9.910;2022-08-01T04:10:37;2.70;;;1.80;;
55732;SDS011;41637;52.364;9.910;2022-08-01T04:13:04;3.40;;;2.20;;
55732;SDS011;41637;52.364;9.910;2022-08-01T04:15:31;3.20;;;2.00;;
55732;SDS011;41637;52.364;9.910;2022-08-01T04:17:58;3.50;;;2.50;;
55732;SDS011;41637;52.364;9.910;2022-08-01T04:20:26;4.70;;;2.80;;
55732;SDS011;41637;52.364;9.910;2022-08-01T04:22:53;4.20;;;2.70;;
55732;SDS011;41637;52.364;9.910;2022-08-01T04:25:30;4.30;;;2.60;;
55732;SDS011;41637;52.364;9.910;2022-08-01T04:28:03;6.00;;;2.80;;
55732;SDS011;41637;52.364;9.910;2022-08-01T04:30:34;7.20;;;2.80;;
55732;SDS011;41637;52.364;9.910;2022-08-01T04:33:03;7.40;;;3.20;;
55732;SDS011;41637;52.364;9.910;2022-08-01T04:35:32;10.20;;;3.90;;
55732;SDS011;41637;52.364;9.910;2022-08-01T04:38:21;8.90;;;3.90;;
55732;SDS011;41637;52.364;9.910;2022-08-01T04:40:53;9.40;;;3.70;;
55732;SDS011;41637;52.364;9.910;2022-08-01T04:43:21;8.70;;;4.30;;
55732;SDS011;41637;52.364;9.910;2022-08-01T04:45:49;6.60;;;3.80;;
55732;SDS011;41637;52.364;9.910;2022-08-01T04:48:17;6.90;;;3.70;;
55732;SDS011;41637;52.364;9.910;2022-08-01T04:50:48;6.50;;;3.80;;
55732;SDS011;41637;52.364;9.910;2022-08-01T04:53:16;7.80;;;4.30;;
55732;SDS011;41637;52.364;9.910;2022-08-01T04:55:45;9.60;;;3.90;;
55732;SDS011;41637;52.364;9.910;2022-08-01T04:58:12;6.40;;;3.90;;
55732;SDS011;41637;52.364;9.910;2022-08-01T05:00:44;5.40;;;3.50;;
55732;SDS011;41637;52.364;9.910;2022-08-01T05:03:11;5.10;;;3.60;;
55732;SDS011;41637;52.364;9.910;2022-08-01T05:05:38;4.10;;;3.30;;
55732;SDS011;41637;52.364;9.910;2022-08-01T05:08:06;4.80;;;3.50;;
55732;SDS011;41637;52.364;9.910;2022-08-01T05:10:33;5.20;;;3.80;;
55732;SDS011;41637;52.364;9.910;2022-08-01T05:13:00;5.50;;;3.10;;
55732;SDS011;41637;52.364;9.910;2022-08-01T05:15:27;5.00;;;3.80;;
55732;SDS011;41637;52.364;9.910;2022-08-01T05:17:54;4.90;;;3.90;;
55732;SDS011;41637;52.364;9.910;2022-08-01T05:20:22;4.00;;;3.50;;
55732;SDS011;41637;52.364;9.910;2022-08-01T05:22:50;4.90;;;4.30;;
55732;SDS011;41637;52.364;9.910;2022-08-01T05:25:17;4.90;;;4.20;;
55732;SDS011;41637;52.364;9.910;2022-08-01T05:27:45;6.60;;;4.70;;
55732;SDS011;41637;52.364;9.910;2022-08-01T05:30:14;6.10;;;4.60;;
55732;SDS011;41637;52.364;9.910;2022-08-01T05:32:41;6.00;;;4.80;;
55732;SDS011;41637;52.364;9.910;2022-08-01T05:35:08;5.20;;;4.50;;
55732;SDS011;41637;52.364;9.910;2022-08-01T05:37:35;5.10;;;4.30;;
55732;SDS011;41637;52.364;9.910;2022-08-01T05:40:03;4.60;;;4.20;;
55732;SDS011;41637;52.364;9.910;2022-08-01T05:42:30;4.80;;;4.40;;
55732;SDS011;41637;52.364;9.910;2022-08-01T05:44:58;4.50;;;4.10;;
55732;SDS011;41637;52.364;9.910;2022-08-01T05:47:25;4.20;;;3.80;;
55732;SDS011;41637;52.364;9.910;2022-08-01T05:49:52;4.60;;;3.90;;
55732;SDS011;41637;52.364;9.910;2022-08-01T05:52:19;5.30;;;3.60;;
55732;SDS011;41637;52.364;9.910;2022-08-01T05:54:45;4.60;;;3.60;;
55732;SDS011;41637;52.364;9.910;2022-08-01T05:57:13;4.20;;;3.30;;
55732;SDS011;41637;52.364;9.910;2022-08-01T05:59:40;3.50;;;2.70;;
55732;SDS011;41637;52.364;9.910;2022-08-01T06:02:07;3.20;;;2.60;;
55732;SDS011;41637;52.364;9.910;2022-08-01T06:04:35;3.80;;;2.40;;
55732;SDS011;41637;52.364;9.910;2022-08-01T06:07:02;3.30;;;2.50;;
55732;SDS011;41637;52.364;9.910;2022-08-01T06:09:29;3.40;;;2.60;;
55732;SDS011;41637;52.364;9.910;2022-08-01T06:11:57;4.00;;;2.80;;
55732;SDS011;41637;52.364;9.910;2022-08-01T06:14:23;5.10;;;2.90;;
55732;SDS011;41637;52.364;9.910;2022-08-01T06:16:50;4.20;;;2.60;;
55732;SDS011;41637;52.364;9.910;2022-08-01T06:19:17;3.90;;;3.20;;
55732;SDS011;41637;52.364;9.910;2022-08-01T06:21:44;4.80;;;3.00;;
55732;SDS011;41637;52.364;9.910;2022-08-01T06:24:11;2.80;;;2.30;;
55732;SDS011;41637;52.364;9.910;2022-08-01T06:26:39;2.70;;;1.80;;
55732;SDS011;41637;52.364;9.910;2022-08-01T06:29:11;2.20;;;1.60;;
55732;SDS011;41637;52.364;9.910;2022-08-01T06:31:39;2.70;;;1.90;;
55732;SDS011;41637;52.364;9.910;2022-08-01T06:34:06;3.20;;;2.10;;
55732;SDS011;41637;52.364;9.910;2022-08-01T06:36:33;3.30;;;1.90;;
55732;SDS011;41637;52.364;9.910;2022-08-01T06:39:00;3.00;;;2.20;;
55732;SDS011;41637;52.364;9.910;2022-08-01T06:41:27;3.60;;;2.50;;
55732;SDS011;41637;52.364;9.910;2022-08-01T06:43:55;3.50;;;2.60;;
55732;SDS011;41637;52.364;9.910;2022-08-01T06:46:22;4.20;;;2.60;;
55732;SDS011;41637;52.364;9.910;2022-08-01T06:48:55;4.00;;;2.80;;
55732;SDS011;41637;52.364;9.910;2022-08-01T06:51:22;5.70;;;2.90;;
55732;SDS011;41637;52.364;9.910;2022-08-01T06:53:49;5.10;;;3.30;;
55732;SDS011;41637;52.364;9.910;2022-08-01T06:56:16;4.20;;;3.40;;
55732;SDS011;41637;52.364;9.910;2022-08-01T06:58:43;4.50;;;3.00;;
55732;SDS011;41637;52.364;9.910;2022-08-01T07:01:11;4.50;;;3.30;;
55732;SDS011;41637;52.364;9.910;2022-08-01T07:03:38;4.10;;;3.50;;
55732;SDS011;41637;52.364;9.910;2022-08-01T07:06:20;4.60;;;3.30;;
55732;SDS011;41637;52.364;9.910;2022-08-01T07:08:50;3.40;;;2.90;;
55732;SDS011;41637;52.364;9.910;2022-08-01T07:11:21;3.00;;;2.70;;
55732;SDS011;41637;52.364;9.910;2022-08-01T07:13:50;4.00;;;2.80;;
55732;SDS011;41637;52.364;9.910;2022-08-01T07:16:17;4.00;;;2.90;;
55732;SDS011;41637;52.364;9.910;2022-08-01T07:18:44;3.00;;;2.50;;
55732;SDS011;41637;52.364;9.910;2022-08-01T07:21:11;3.60;;;2.50;;
55732;SDS011;41637;52.364;9.910;2022-08-01T07:23:58;3.80;;;2.20;;
55732;SDS011;41637;52.364;9.910;2022-08-01T07:26:26;3.10;;;2.40;;
55732;SDS011;41637;52.364;9.910;2022-08-01T07:28:53;2.60;;;2.20;;
55732;SDS011;41637;52.364;9.910;2022-08-01T07:31:20;2.30;;;2.10;;
55732;SDS011;41637;52.364;9.910;2022-08-01T07:33:47;2.50;;;2.20;;
55732;SDS011;41637;52.364;9.910;2022-08-01T07:36:15;2.70;;;2.10;;
55732;SDS011;41637;52.364;9.910;2022-08-01T07:38:43;3.30;;;2.10;;
55732;SDS011;41637;52.364;9.910;2022-08-01T07:41:10;3.30;;;2.10;;
55732;SDS011;41637;52.364;9.910;2022-08-01T07:43:37;2.50;;;2.10;;
55732;SDS011;41637;52.364;9.910;2022-08-01T07:46:07;3.00;;;2.00;;
55732;SDS011;41637;52.364;9.910;2022-08-01T07:48:35;2.20;;;1.80;;
55732;SDS011;41637;52.364;9.910;2022-08-01T07:51:02;3.20;;;2.00;;
55732;SDS011;41637;52.364;9.910;2022-08-01T07:53:31;2.80;;;1.90;;
55732;SDS011;41637;52.364;9.910;2022-08-01T07:55:59;3.00;;;2.30;;
55732;SDS011;41637;52.364;9.910;2022-08-01T07:58:31;3.20;;;1.90;;
55732;SDS011;41637;52.364;9.910;2022-08-01T08:00:58;3.00;;;2.00;;
55732;SDS011;41637;52.364;9.910;2022-08-01T08:03:28;3.20;;;2.40;;
55732;SDS011;41637;52.364;9.910;2022-08-01T08:05:55;2.80;;;2.50;;
55732;SDS011;41637;52.364;9.910;2022-08-01T08:08:24;2.50;;;1.70;;
55732;SDS011;41637;52.364;9.910;2022-08-01T08:10:51;2.90;;;1.60;;
55732;SDS011;41637;52.364;9.910;2022-08-01T08:13:18;1.80;;;1.60;;
55732;SDS011;41637;52.364;9.910;2022-08-01T08:15:46;2.40;;;1.90;;
55732;SDS011;41637;52.364;9.910;2022-08-01T08:18:14;2.50;;;1.60;;
55732;SDS011;41637;52.364;9.910;2022-08-01T08:20:41;3.20;;;1.80;;
55732;SDS011;41637;52.364;9.910;2022-08-01T08:23:09;2.00;;;1.80;;
55732;SDS011;41637;52.364;9.910;2022-08-01T08:26:08;2.50;;;1.70;;
55732;SDS011;41637;52.364;9.910;2022-08-01T08:28:35;2.20;;;1.70;;
55732;SDS011;41637;52.364;9.910;2022-08-01T08:31:05;2.50;;;1.40;;
55732;SDS011;41637;52.364;9.910;2022-08-01T08:33:50;2.70;;;1.60;;
55732;SDS011;41637;52.364;9.910;2022-08-01T08:36:18;2.10;;;1.50;;
55732;SDS011;41637;52.364;9.910;2022-08-01T08:38:45;2.50;;;1.50;;
55732;SDS011;41637;52.364;9.910;2022-08-01T08:41:12;3.50;;;1.70;;
55732;SDS011;41637;52.364;9.910;2022-08-01T08:43:46;3.00;;;1.90;;
55732;SDS011;41637;52.364;9.910;2022-08-01T08:46:13;2.40;;;1.60;;
55732;SDS011;41637;52.364;9.910;2022-08-01T08:48:41;3.70;;;1.90;;
55732;SDS011;41637;52.364;9.910;2022-08-01T08:51:08;4.30;;;1.90;;
55732;SDS011;41637;52.364;9.910;2022-08-01T08:53:40;4.50;;;1.70;;
55732;SDS011;41637;52.364;9.910;2022-08-01T08:56:14;2.50;;;1.90;;
55732;SDS011;41637;52.364;9.910;2022-08-01T08:58:43;3.30;;;1.80;;
55732;SDS011;41637;52.364;9.910;2022-08-01T09:01:11;2.80;;;2.30;;
55732;SDS011;41637;52.364;9.910;2022-08-01T09:03:39;3.00;;;1.80;;
55732;SDS011;41637;52.364;9.910;2022-08-01T09:06:07;2.40;;;1.80;;
55732;SDS011;41637;52.364;9.910;2022-08-01T09:08:34;2.70;;;2.10;;
55732;SDS011;41637;52.364;9.910;2022-08-01T09:11:02;2.60;;;1.90;;
55732;SDS011;41637;52.364;9.910;2022-08-01T09:13:32;2.70;;;2.00;;
55732;SDS011;41637;52.364;9.910;2022-08-01T09:15:59;3.10;;;2.10;;
55732;SDS011;41637;52.364;9.910;2022-08-01T09:21:19;2.70;;;2.30;;
55732;SDS011;41637;52.364;9.910;2022-08-01T09:23:48;3.10;;;2.50;;
55732;SDS011;41637;52.364;9.910;2022-08-01T09:26:30;2.70;;;2.40;;
55732;SDS011;41637;52.364;9.910;2022-08-01T09:28:59;3.60;;;2.40;;
55732;SDS011;41637;52.364;9.910;2022-08-01T09:31:41;3.50;;;2.60;;
55732;SDS011;41637;52.364;9.910;2022-08-01T09:34:13;4.00;;;2.20;;
55732;SDS011;41637;52.364;9.910;2022-08-01T09:39:30;2.50;;;2.10;;
55732;SDS011;41637;52.364;9.910;2022-08-01T09:42:20;2.80;;;2.50;;
55732;SDS011;41637;52.364;9.910;2022-08-01T09:44:54;3.60;;;2.10;;
55732;SDS011;41637;52.364;9.910;2022-08-01T09:47:22;2.70;;;1.70;;
55732;SDS011;41637;52.364;9.910;2022-08-01T09:50:04;2.30;;;1.70;;
55732;SDS011;41637;52.364;9.910;2022-08-01T09:52:36;2.10;;;1.70;;
55732;SDS011;41637;52.364;9.910;2022-08-01T09:55:06;2.70;;;1.70;;
55732;SDS011;41637;52.364;9.910;2022-08-01T09:57:33;4.60;;;2.30;;
55732;SDS011;41637;52.364;9.910;2022-08-01T10:00:01;3.20;;;2.10;;
55732;SDS011;41637;52.364;9.910;2022-08-01T10:02:36;3.40;;;1.90;;
55732;SDS011;41637;52.364;9.910;2022-08-01T10:05:06;2.90;;;1.70;;
55732;SDS011;41637;52.364;9.910;2022-08-01T10:07:57;3.70;;;2.10;;
55732;SDS011;41637;52.364;9.910;2022-08-01T10:10:25;4.70;;;2.30;;
55732;SDS011;41637;52.364;9.910;2022-08-01T10:12:59;5.70;;;2.40;;
55732;SDS011;41637;52.364;9.910;2022-08-01T10:15:28;4.40;;;2.60;;
55732;SDS011;41637;52.364;9.910;2022-08-01T10:18:04;2.70;;;1.80;;
55732;SDS011;41637;52.364;9.910;2022-08-01T10:20:50;3.80;;;1.80;;
55732;SDS011;41637;52.364;9.910;2022-08-01T10:23:21;3.70;;;1.80;;
55732;SDS011;41637;52.364;9.910;2022-08-01T10:26:06;2.90;;;1.80;;
55732;SDS011;41637;52.364;9.910;2022-08-01T10:28:34;4.60;;;1.90;;
55732;SDS011;41637;52.364;9.910;2022-08-01T10:31:07;2.80;;;2.10;;
55732;SDS011;41637;52.364;9.910;2022-08-01T10:33:39;4.90;;;2.00;;
55732;SDS011;41637;52.364;9.910;2022-08-01T10:36:19;3.20;;;1.60;;
55732;SDS011;41637;52.364;9.910;2022-08-01T10:38:48;5.20;;;1.70;;
55732;SDS011;41637;52.364;9.910;2022-08-01T10:41:16;3.00;;;1.60;;
55732;SDS011;41637;52.364;9.910;2022-08-01T10:43:45;5.00;;;1.70;;
55732;SDS011;41637;52.364;9.910;2022-08-01T10:46:12;3.70;;;1.50;;
55732;SDS011;41637;52.364;9.910;2022-08-01T10:48:45;2.70;;;1.40;;
55732;SDS011;41637;52.364;9.910;2022-08-01T10:51:20;2.80;;;1.10;;
55732;SDS011;41637;52.364;9.910;2022-08-01T10:54:08;3.80;;;1.20;;
55732;SDS011;41637;52.364;9.910;2022-08-01T10:56:42;3.80;;;1.10;;
55732;SDS011;41637;52.364;9.910;2022-08-01T11:02:28;3.90;;;1.30;;
55732;SDS011;41637;52.364;9.910;2022-08-01T11:05:17;3.40;;;1.20;;
55732;SDS011;41637;52.364;9.910;2022-08-01T11:07:52;2.10;;;1.10;;
55732;SDS011;41637;52.364;9.910;2022-08-01T11:10:39;2.60;;;1.20;;
55732;SDS011;41637;52.364;9.910;2022-08-01T11:13:09;3.80;;;1.20;;
55732;SDS011;41637;52.364;9.910;2022-08-01T11:15:39;3.20;;;1.40;;
55732;SDS011;41637;52.364;9.910;2022-08-01T11:18:36;4.30;;;1.30;;
55732;SDS011;41637;52.364;9.910;2022-08-01T11:21:06;4.00;;;1.20;;
55732;SDS011;41637;52.364;9.910;2022-08-01T11:23:53;4.70;;;1.60;;
55732;SDS011;41637;52.364;9.910;2022-08-01T11:26:23;3.40;;;1.20;;
55732;SDS011;41637;52.364;9.910;2022-08-01T11:29:11;3.20;;;1.00;;
55732;SDS011;41637;52.364;9.910;2022-08-01T11:31:47;4.30;;;1.10;;
55732;SDS011;41637;52.364;9.910;2022-08-01T11:34:14;4.40;;;1.40;;
55732;SDS011;41637;52.364;9.910;2022-08-01T11:36:41;5.20;;;1.50;;
55732;SDS011;41637;52.364;9.910;2022-08-01T11:39:25;3.10;;;1.00;;
55732;SDS011;41637;52.364;9.910;2022-08-01T11:41:52;3.90;;;1.10;;
55732;SDS011;41637;52.364;9.910;2022-08-01T11:44:21;5.20;;;1.50;;
55732;SDS011;41637;52.364;9.910;2022-08-01T11:46:53;3.30;;;1.20;;
55732;SDS011;41637;52.364;9.910;2022-08-01T11:52:24;2.20;;;1.10;;
55732;SDS011;41637;52.364;9.910;2022-08-01T11:55:14;4.00;;;1.00;;
55732;SDS011;41637;52.364;9.910;2022-08-01T11:57:42;2.50;;;1.00;;
55732;SDS011;41637;52.364;9.910;2022-08-01T12:02:41;4.20;;;1.50;;
55732;SDS011;41637;52.364;9.910;2022-08-01T12:05:11;4.20;;;1.40;;
55732;SDS011;41637;52.364;9.910;2022-08-01T12:07:41;3.40;;;1.20;;
55732;SDS011;41637;52.364;9.910;2022-08-01T12:10:10;4.40;;;1.50;;
55732;SDS011;41637;52.364;9.910;2022-08-01T12:15:22;4.60;;;1.20;;
55732;SDS011;41637;52.364;9.910;2022-08-01T12:18:36;3.50;;;1.30;;
55732;SDS011;41637;52.364;9.910;2022-08-01T12:20:44;3.00;;;1.10;;
55732;SDS011;41637;52.364;9.910;2022-08-01T12:23:26;2.70;;;1.10;;
55732;SDS011;41637;52.364;9.910;2022-08-01T12:25:54;4.20;;;1.30;;
55732;SDS011;41637;52.364;9.910;2022-08-01T12:28:21;3.50;;;1.10;;
55732;SDS011;41637;52.364;9.910;2022-08-01T12:30:49;4.20;;;1.40;;
55732;SDS011;41637;52.364;9.910;2022-08-01T12:33:19;3.20;;;1.10;;
55732;SDS011;41637;52.364;9.910;2022-08-01T12:35:47;3.80;;;1.30;;
55732;SDS011;41637;52.364;9.910;2022-08-01T12:38:21;5.40;;;1.30;;
55732;SDS011;41637;52.364;9.910;2022-08-01T12:40:49;3.90;;;1.20;;
55732;SDS011;41637;52.364;9.910;2022-08-01T12:43:20;5.10;;;1.20;;
55732;SDS011;41637;52.364;9.910;2022-08-01T12:45:54;3.60;;;1.40;;
55732;SDS011;41637;52.364;9.910;2022-08-01T12:48:24;2.90;;;1.20;;
55732;SDS011;41637;52.364;9.910;2022-08-01T12:50:52;1.90;;;0.90;;
55732;SDS011;41637;52.364;9.910;2022-08-01T12:53:24;5.90;;;1.70;;
55732;SDS011;41637;52.364;9.910;2022-08-01T12:56:05;4.50;;;1.10;;
55732;SDS011;41637;52.364;9.910;2022-08-01T12:58:32;3.30;;;1.10;;
55732;SDS011;41637;52.364;9.910;2022-08-01T13:01:04;3.20;;;1.10;;
55732;SDS011;41637;52.364;9.910;2022-08-01T13:03:34;4.70;;;1.10;;
55732;SDS011;41637;52.364;9.910;2022-08-01T13:06:08;4.10;;;1.20;;
55732;SDS011;41637;52.364;9.910;2022-08-01T13:08:37;2.90;;;1.00;;
55732;SDS011;41637;52.364;9.910;2022-08-01T13:11:08;3.30;;;1.10;;
55732;SDS011;41637;52.364;9.910;2022-08-01T13:13:41;3.30;;;1.10;;
55732;SDS011;41637;52.364;9.910;2022-08-01T13:16:27;3.10;;;1.10;;
55732;SDS011;41637;52.364;9.910;2022-08-01T13:19:14;3.80;;;1.10;;
55732;SDS011;41637;52.364;9.910;2022-08-01T13:21:53;4.20;;;1.30;;
55732;SDS011;41637;52.364;9.910;2022-08-01T13:24:25;3.00;;;1.00;;
55732;SDS011;41637;52.364;9.910;2022-08-01T13:26:54;5.00;;;1.50;;
55732;SDS011;41637;52.364;9.910;2022-08-01T13:29:32;4.30;;;1.70;;
55732;SDS011;41637;52.364;9.910;2022-08-01T13:32:11;3.40;;;1.50;;
55732;SDS011;41637;52.364;9.910;2022-08-01T13:35:02;3.70;;;1.40;;
55732;SDS011;41637;52.364;9.910;2022-08-01T13:37:29;4.80;;;1.30;;
55732;SDS011;41637;52.364;9.910;2022-08-01T13:39:57;5.50;;;1.20;;
55732;SDS011;41637;52.364;9.910;2022-08-01T13:42:25;3.90;;;1.10;;
55732;SDS011;41637;52.364;9.910;2022-08-01T13:44:52;2.90;;;1.10;;
55732;SDS011;41637;52.364;9.910;2022-08-01T13:47:19;4.20;;;1.10;;
55732;SDS011;41637;52.364;9.910;2022-08-01T13:49:57;4.00;;;1.10;;
55732;SDS011;41637;52.364;9.910;2022-08-01T13:52:40;4.10;;;1.30;;
55732;SDS011;41637;52.364;9.910;2022-08-01T13:55:07;3.90;;;1.10;;
55732;SDS011;41637;52.364;9.910;2022-08-01T13:57:36;4.90;;;1.30;;
55732;SDS011;41637;52.364;9.910;2022-08-01T14:00:07;4.00;;;1.10;;
55732;SDS011;41637;52.364;9.910;2022-08-01T14:02:35;3.50;;;1.50;;
55732;SDS011;41637;52.364;9.910;2022-08-01T14:05:02;4.40;;;1.40;;
55732;SDS011;41637;52.364;9.910;2022-08-01T14:07:30;4.00;;;1.40;;
55732;SDS011;41637;52.364;9.910;2022-08-01T14:09:57;4.00;;;1.10;;
55732;SDS011;41637;52.364;9.910;2022-08-01T14:12:44;4.40;;;1.30;;
55732;SDS011;41637;52.364;9.910;2022-08-01T14:15:12;5.00;;;1.50;;
55732;SDS011;41637;52.364;9.910;2022-08-01T14:18:00;4.00;;;1.10;;
55732;SDS011;41637;52.364;9.910;2022-08-01T14:20:31;3.70;;;1.20;;
55732;SDS011;41637;52.364;9.910;2022-08-01T14:22:59;4.90;;;1.10;;
55732;SDS011;41637;52.364;9.910;2022-08-01T14:25:26;3.80;;;1.20;;
55732;SDS011;41637;52.364;9.910;2022-08-01T14:28:13;6.90;;;1.80;;
55732;SDS011;41637;52.364;9.910;2022-08-01T14:30:41;3.40;;;1.20;;
55732;SDS011;41637;52.364;9.910;2022-08-01T14:33:09;4.40;;;1.20;;
55732;SDS011;41637;52.364;9.910;2022-08-01T14:35:36;5.00;;;1.50;;
55732;SDS011;41637;52.364;9.910;2022-08-01T14:38:23;4.30;;;1.30;;
55732;SDS011;41637;52.364;9.910;2022-08-01T14:40:57;3.80;;;1.20;;
55732;SDS011;41637;52.364;9.910;2022-08-01T14:43:25;4.90;;;1.50;;
55732;SDS011;41637;52.364;9.910;2022-08-01T14:45:59;4.20;;;1.30;;
55732;SDS011;41637;52.364;9.910;2022-08-01T14:48:26;7.30;;;1.50;;
55732;SDS011;41637;52.364;9.910;2022-08-01T14:50:55;7.50;;;3.30;;
55732;SDS011;41637;52.364;9.910;2022-08-01T14:53:22;4.50;;;1.50;;
55732;SDS011;41637;52.364;9.910;2022-08-01T14:55:49;5.20;;;1.30;;
55732;SDS011;41637;52.364;9.910;2022-08-01T14:58:16;4.20;;;1.30;;
55732;SDS011;41637;52.364;9.910;2022-08-01T15:00:43;7.40;;;1.50;;
55732;SDS011;41637;52.364;9.910;2022-08-01T15:03:11;6.40;;;1.50;;
55732;SDS011;41637;52.364;9.910;2022-08-01T15:05:38;6.10;;;1.50;;
55732;SDS011;41637;52.364;9.910;2022-08-01T15:08:06;5.30;;;1.50;;
55732;SDS011;41637;52.364;9.910;2022-08-01T15:10:32;5.00;;;1.40;;
55732;SDS011;41637;52.364;9.910;2022-08-01T15:13:00;5.30;;;1.50;;
55732;SDS011;41637;52.364;9.910;2022-08-01T15:15:27;4.70;;;1.40;;
55732;SDS011;41637;52.364;9.910;2022-08-01T15:17:55;4.60;;;1.10;;
55732;SDS011;41637;52.364;9.910;2022-08-01T15:20:22;4.50;;;1.30;;
55732;SDS011;41637;52.364;9.910;2022-08-01T15:22:51;4.50;;;1.20;;
55732;SDS011;41637;52.364;9.910;2022-08-01T15:25:19;7.70;;;1.50;;
55732;SDS011;41637;52.364;9.910;2022-08-01T15:27:45;5.80;;;1.40;;
55732;SDS011;41637;52.364;9.910;2022-08-01T15:30:13;7.00;;;1.40;;
55732;SDS011;41637;52.364;9.910;2022-08-01T15:32:40;5.50;;;1.40;;
55732;SDS011;41637;52.364;9.910;2022-08-01T15:35:07;4.80;;;1.60;;
55732;SDS011;41637;52.364;9.910;2022-08-01T15:37:36;7.50;;;1.50;;